Time;durP1;ratioP1;P1;durP2;ratioP2;P2;SDS_P1;SDS_P2;PMS_P1;PMS_P2;Temp;Humidity;BMP_temperature;BMP_pressure;BME280_temperature;BME280_humidity;BME280_pressure;Samples;Min_cycle;Max_cycle;Signal;HPM_P1;HPM_P2
2021/09/16 00:01:39;;;;;;;14.50;13.00;;;;;;;18.02;80.95;98701.25;2622114;54;20026;-70
2021/09/16 00:04:09;;;;;;;14.40;13.00;;;;;;;18.08;81.00;98710.16;2623700;39;20441;-69
2021/09/16 00:06:39;;;;;;;14.20;12.70;;;;;;;18.18;81.27;98709.50;2622593;39;20403;-70
2021/09/16 00:09:08;;;;;;;15.00;12.50;;;;;;;18.31;80.97;98709.97;2622437;54;20039;-70
2021/09/16 00:11:38;;;;;;;20.50;18.50;;;;;;;18.34;80.52;98708.69;2621808;54;20034;-70
2021/09/16 00:14:07;;;;;;;19.95;17.98;;;;;;;18.17;80.50;98708.72;2623148;39;20442;-70
2021/09/16 00:16:41;;;;;;;22.20;17.98;;;;;;;18.06;80.43;98712.28;2622691;39;20395;-70
2021/09/16 00:19:11;;;;;;;19.17;17.17;;;;;;;17.94;81.02;98709.66;2622502;39;20469;-70
2021/09/16 00:21:40;;;;;;;18.13;16.05;;;;;;;17.93;80.94;98716.09;2622331;39;20451;-70
2021/09/16 00:24:10;;;;;;;20.08;16.75;;;;;;;17.92;80.48;98718.97;2622313;54;20023;-69
2021/09/16 00:26:40;;;;;;;19.67;17.58;;;;;;;17.94;81.21;98723.03;2620896;54;20026;-69
2021/09/16 00:29:11;;;;;;;19.73;17.67;;;;;;;17.95;81.40;98724.66;2621233;54;20034;-69
2021/09/16 00:31:43;;;;;;;18.80;16.80;;;;;;;17.95;81.28;98731.88;2621065;39;20489;-70
2021/09/16 00:34:13;;;;;;;22.80;20.45;;;;;;;17.89;81.10;98722.97;2621535;54;20089;-69
2021/09/16 00:36:43;;;;;;;24.55;19.15;;;;;;;17.79;81.23;98720.09;2621976;54;20102;-70
2021/09/16 00:39:12;;;;;;;18.77;16.30;;;;;;;17.75;81.84;98717.09;2621488;54;20034;-69
2021/09/16 00:41:42;;;;;;;20.10;17.42;;;;;;;17.78;81.43;98721.16;2621931;54;20035;-69
2021/09/16 00:44:12;;;;;;;20.55;18.45;;;;;;;17.83;82.05;98729.25;2622329;54;20039;-70
2021/09/16 00:46:47;;;;;;;23.30;19.03;;;;;;;17.85;81.43;98727.19;2621348;54;20029;-70
2021/09/16 00:49:17;;;;;;;26.33;23.45;;;;;;;17.83;81.42;98722.06;2621364;47;20031;-69
2021/09/16 00:51:49;;;;;;;25.42;21.83;;;;;;;17.76;81.70;98720.59;2621111;54;20929;-70
2021/09/16 00:54:19;;;;;;;20.55;18.40;;;;;;;17.74;82.82;98723.50;2621910;54;20022;-69
2021/09/16 00:56:51;;;;;;;22.60;18.55;;;;;;;17.77;82.38;98723.03;2622419;54;20030;-69
2021/09/16 00:59:23;;;;;;;21.65;19.23;;;;;;;17.80;82.51;98725.22;2621840;47;20030;-70
2021/09/16 01:01:56;;;;;;;22.27;20.07;;;;;;;17.76;81.70;98718.75;2621789;54;20558;-70
2021/09/16 01:04:26;;;;;;;22.85;20.17;;;;;;;17.70;82.20;98722.34;2621715;54;20141;-69
2021/09/16 01:06:56;;;;;;;23.63;21.02;;;;;;;17.72;82.73;98727.47;2620626;54;20061;-69
2021/09/16 01:09:26;;;;;;;18.58;16.70;;;;;;;17.73;82.34;98724.53;2622101;39;20532;-69
2021/09/16 01:11:56;;;;;;;20.65;18.55;;;;;;;17.78;82.64;98731.84;2620960;54;20023;-69
2021/09/16 01:14:26;;;;;;;21.70;19.13;;;;;;;17.80;82.68;98725.22;2621189;47;20027;-69
2021/09/16 01:17:00;;;;;;;21.00;18.75;;;;;;;17.87;82.17;98729.59;2621364;54;20027;-69
2021/09/16 01:19:30;;;;;;;;;;;;;;;17.84;81.49;98722.88;2623369;39;20494;-69
2021/09/16 01:21:59;;;;;;;19.05;16.50;;;;;;;17.80;81.66;98727.09;2622347;54;19938;-69
2021/09/16 01:24:32;;;;;;;22.33;19.55;;;;;;;17.77;82.08;98723.03;2623379;54;20081;-69
2021/09/16 01:27:01;;;;;;;28.77;23.65;;;;;;;17.73;81.74;98721.84;2622572;54;20034;-70
2021/09/16 01:29:31;;;;;;;22.95;20.50;;;;;;;17.70;82.20;98726.88;2622239;54;20042;-70
2021/09/16 01:32:04;;;;;;;23.98;20.58;;;;;;;17.69;82.28;98730.59;2622218;54;20027;-68
2021/09/16 01:34:34;;;;;;;;;;;;;;;17.67;82.40;98730.03;2622544;54;20019;-69
2021/09/16 01:37:05;;;;;;;24.05;20.95;;;;;;;17.67;82.23;98732.69;2622262;54;19993;-69
2021/09/16 01:39:37;;;;;;;21.67;19.10;;;;;;;17.66;82.19;98723.06;2621721;54;20042;-69
2021/09/16 01:42:08;;;;;;;25.65;19.83;;;;;;;17.69;82.65;98731.41;2621813;54;20034;-69
2021/09/16 01:44:38;;;;;;;22.58;20.23;;;;;;;17.71;81.89;98725.81;2622193;54;20034;-69
2021/09/16 01:47:09;;;;;;;22.98;20.27;;;;;;;17.70;82.09;98738.38;2622410;54;20046;-68
2021/09/16 01:49:38;;;;;;;25.40;20.98;;;;;;;17.65;82.20;98724.91;2622543;39;20436;-68
2021/09/16 01:52:09;;;;;;;23.52;20.40;;;;;;;17.69;82.24;98728.72;2623364;54;20023;-68
2021/09/16 01:54:41;;;;;;;25.98;22.17;;;;;;;17.66;82.47;98734.56;2624207;54;20533;-69
2021/09/16 01:57:10;;;;;;;23.45;20.75;;;;;;;17.65;83.03;98724.91;2624028;54;20035;-67
2021/09/16 01:59:40;;;;;;;22.92;20.35;;;;;;;17.63;82.88;98727.00;2623462;54;20034;-68
2021/09/16 02:02:10;;;;;;;21.63;19.33;;;;;;;17.68;82.81;98729.78;2623906;54;20047;-68
2021/09/16 02:04:39;;;;;;;20.88;18.58;;;;;;;17.71;82.49;98721.28;2624403;54;20022;-69
2021/09/16 02:07:09;;;;;;;23.63;19.80;;;;;;;17.70;82.02;98727.69;2625941;39;20419;-69
2021/09/16 02:09:41;;;;;;;22.08;18.77;;;;;;;17.73;82.89;98727.19;2624155;54;20034;-68
2021/09/16 02:12:12;;;;;;;25.02;22.48;;;;;;;17.77;82.27;98728.38;2623721;54;20022;-69
2021/09/16 02:14:42;;;;;;;24.40;21.80;;;;;;;17.74;82.50;98726.19;2623722;51;20023;-68
2021/09/16 02:17:12;;;;;;;24.40;20.23;;;;;;;17.72;82.70;98728.25;2624308;54;20023;-68
2021/09/16 02:19:41;;;;;;;20.40;17.63;;;;;;;17.71;82.77;98731.97;2624742;54;20046;-68
2021/09/16 02:22:11;;;;;;;21.63;19.27;;;;;;;17.75;83.18;98726.97;2623206;47;20041;-68
2021/09/16 02:24:43;;;;;;;21.27;18.70;;;;;;;17.85;82.64;98732.53;2623564;47;20044;-68
2021/09/16 02:27:13;;;;;;;20.83;18.65;;;;;;;17.94;82.28;98731.06;2623894;54;20041;-68
2021/09/16 02:29:43;;;;;;;18.65;16.65;;;;;;;17.96;82.28;98736.16;2623647;54;20580;-69
2021/09/16 02:32:12;;;;;;;19.42;16.88;;;;;;;18.00;81.99;98743.50;2622985;54;20033;-68
2021/09/16 02:34:42;;;;;;;23.77;20.95;;;;;;;17.98;81.93;98734.88;2623025;54;20030;-69
2021/09/16 02:37:12;;;;;;;23.35;19.50;;;;;;;17.83;81.42;98727.41;2623502;54;20027;-68
2021/09/16 02:39:44;;;;;;;26.50;21.55;;;;;;;17.80;82.29;98725.22;2623464;54;20043;-68
2021/09/16 02:42:13;;;;;;;25.90;23.15;;;;;;;17.73;81.91;98729.88;2623015;54;20041;-68
2021/09/16 02:44:43;;;;;;;24.73;21.13;;;;;;;17.63;82.07;98728.88;2623079;54;20039;-70
2021/09/16 02:47:13;;;;;;;25.17;21.98;;;;;;;17.61;82.80;98731.00;2623196;54;20048;-69
2021/09/16 02:49:42;;;;;;;25.42;20.65;;;;;;;17.62;83.07;98727.25;2622884;54;20022;-69
2021/09/16 02:52:12;;;;;;;25.02;22.50;;;;;;;17.64;82.54;98725.97;2622365;54;20569;-69
2021/09/16 02:54:44;;;;;;;25.95;21.42;;;;;;;17.57;82.51;98731.47;2622869;54;20026;-69
2021/09/16 02:57:15;;;;;;;25.88;23.02;;;;;;;17.56;83.00;98735.19;2623191;54;20049;-69
2021/09/16 02:59:44;;;;;;;23.08;20.15;;;;;;;17.60;83.60;98738.19;2622835;54;20031;-69
2021/09/16 03:02:14;;;;;;;22.42;19.63;;;;;;;17.69;83.37;98736.75;2622174;54;20577;-68
2021/09/16 03:04:44;;;;;;;22.73;19.23;;;;;;;17.77;83.02;98741.75;2622029;54;20102;-70
2021/09/16 03:07:13;;;;;;;22.25;19.77;;;;;;;17.79;82.99;98738.81;2622237;54;20030;-68
2021/09/16 03:09:46;;;;;;;24.23;20.50;;;;;;;17.79;82.31;98739.63;2622239;54;20031;-68
2021/09/16 03:12:15;;;;;;;20.52;18.40;;;;;;;17.82;82.30;98735.66;2622670;39;20402;-68
2021/09/16 03:14:45;;;;;;;22.63;19.52;;;;;;;17.80;82.04;98735.13;2622399;54;20019;-68
2021/09/16 03:17:15;;;;;;;19.58;17.63;;;;;;;17.76;82.04;98736.66;2622978;54;20035;-68
2021/09/16 03:19:44;;;;;;;20.90;18.15;;;;;;;17.72;82.30;98736.28;2623306;39;20419;-68
2021/09/16 03:22:14;;;;;;;18.98;17.02;;;;;;;17.65;82.50;98742.81;2621877;54;20039;-68
2021/09/16 03:24:47;;;;;;;16.15;14.52;;;;;;;17.62;82.05;98740.63;2622709;54;20034;-69
2021/09/16 03:27:16;;;;;;;16.00;13.40;;;;;;;17.51;82.03;98734.28;2622657;54;20038;-67
2021/09/16 03:29:46;;;;;;;16.75;15.00;;;;;;;17.47;81.49;98730.44;2622765;54;20030;-69
2021/09/16 03:32:16;;;;;;;18.25;16.23;;;;;;;17.38;81.58;98732.69;2621992;47;20030;-69
2021/09/16 03:34:46;;;;;;;19.88;17.38;;;;;;;17.32;81.97;98742.50;2622346;47;20142;-69
2021/09/16 03:37:15;;;;;;;16.98;14.25;;;;;;;17.30;81.87;98743.75;2622631;47;20062;-69
2021/09/16 03:39:47;;;;;;;17.60;15.80;;;;;;;17.32;81.84;98739.81;2622752;54;20027;-70
2021/09/16 03:42:17;;;;;;;18.42;15.65;;;;;;;17.30;81.80;98746.44;2622616;54;20030;-69
2021/09/16 03:44:47;;;;;;;16.52;14.82;;;;;;;17.28;81.60;98737.84;2622699;54;20027;-69
2021/09/16 03:47:16;;;;;;;16.70;15.00;;;;;;;17.23;81.62;98743.91;2622665;54;20034;-70
2021/09/16 03:49:46;;;;;;;17.55;15.48;;;;;;;17.26;81.68;98739.94;2622809;54;20030;-69
2021/09/16 03:52:16;;;;;;;29.52;23.73;;;;;;;17.20;81.37;98740.91;2622353;54;20030;-69
2021/09/16 03:54:48;;;;;;;17.02;15.20;;;;;;;17.24;81.83;98750.06;2622906;54;20038;-68
2021/09/16 03:57:17;;;;;;;17.90;16.08;;;;;;;17.19;81.07;98750.78;2621927;54;20035;-68
2021/09/16 03:59:47;;;;;;;16.30;14.65;;;;;;;17.19;81.06;98753.44;2621544;47;20033;-69
2021/09/16 04:02:17;;;;;;;17.35;13.82;;;;;;;17.29;81.46;98750.16;2620554;54;20030;-69
2021/09/16 04:04:46;;;;;;;18.52;14.90;;;;;;;17.40;80.90;98760.00;2622882;54;20041;-69
2021/09/16 04:07:16;;;;;;;15.45;13.82;;;;;;;17.44;81.23;98760.34;2623276;54;20042;-70
2021/09/16 04:09:48;;;;;;;17.35;15.30;;;;;;;17.46;79.97;98759.03;2623712;39;20487;-69
2021/09/16 04:12:18;;;;;;;17.88;14.43;;;;;;;17.38;80.25;98762.09;2622470;47;20065;-69
2021/09/16 04:14:47;;;;;;;18.80;16.20;;;;;;;17.36;80.19;98763.41;2622497;47;20114;-69
2021/09/16 04:17:17;;;;;;;20.10;16.23;;;;;;;17.35;80.69;98765.25;2623055;54;20026;-69
2021/09/16 04:19:46;;;;;;;19.30;16.63;;;;;;;17.37;80.40;98760.47;2624432;39;20437;-69
2021/09/16 04:22:16;;;;;;;16.65;14.57;;;;;;;17.32;80.24;98768.41;2622515;54;20041;-68
2021/09/16 04:24:48;;;;;;;17.70;15.75;;;;;;;17.36;80.65;98763.41;2622667;54;20027;-68
2021/09/16 04:27:18;;;;;;;17.77;16.05;;;;;;;17.39;80.08;98769.06;2623477;54;20038;-68
2021/09/16 04:29:48;;;;;;;17.92;15.55;;;;;;;17.44;80.62;98768.38;2623506;54;20031;-68
2021/09/16 04:32:17;;;;;;;21.17;18.60;;;;;;;17.53;80.48;98766.94;2622139;54;20023;-68
2021/09/16 04:34:47;;;;;;;17.05;15.20;;;;;;;17.47;80.63;98773.22;2623026;54;20049;-68
2021/09/16 04:37:17;;;;;;;20.63;17.38;;;;;;;17.51;81.14;98769.00;2623230;54;20047;-70
2021/09/16 04:39:49;;;;;;;20.17;17.30;;;;;;;17.54;80.90;98777.38;2622514;47;20563;-68
2021/09/16 04:42:18;;;;;;;20.40;16.63;;;;;;;17.56;80.78;98787.84;2622070;54;20034;-69
2021/09/16 04:44:48;;;;;;;20.70;17.35;;;;;;;17.56;80.95;98783.31;2623274;54;20069;-67
2021/09/16 04:47:17;;;;;;;18.75;16.77;;;;;;;17.51;80.70;98788.56;2622798;54;20175;-68
2021/09/16 04:49:47;;;;;;;19.35;17.27;;;;;;;17.53;80.44;98788.31;2622165;54;20034;-68
2021/09/16 04:52:17;;;;;;;27.00;17.17;;;;;;;17.53;80.61;98794.47;2621271;54;20038;-69
2021/09/16 04:54:49;;;;;;;22.55;18.13;;;;;;;17.53;80.76;98796.31;2621764;54;20083;-68
2021/09/16 04:57:19;;;;;;;20.52;16.42;;;;;;;17.53;80.63;98794.47;2622998;54;20126;-69
2021/09/16 04:59:49;;;;;;;18.17;15.35;;;;;;;17.55;80.71;98787.03;2622431;54;20027;-68
2021/09/16 05:02:18;;;;;;;18.92;16.42;;;;;;;17.57;80.80;98792.13;2623098;54;20033;-68
2021/09/16 05:04:48;;;;;;;20.08;16.92;;;;;;;17.61;80.51;98798.63;2623003;54;20026;-69
2021/09/16 05:07:18;;;;;;;18.95;15.73;;;;;;;17.60;80.10;98801.53;2622856;54;20039;-69
2021/09/16 05:09:50;;;;;;;17.80;15.98;;;;;;;17.55;80.19;98811.09;2622736;54;20019;-68
2021/09/16 05:12:20;;;;;;;27.23;20.13;;;;;;;17.55;80.22;98805.75;2621454;54;20035;-76
2021/09/16 05:14:50;;;;;;;20.30;18.35;;;;;;;17.46;79.75;98806.34;2623462;54;20577;-69
2021/09/16 05:17:19;;;;;;;19.88;16.63;;;;;;;17.41;79.90;98806.25;2622475;47;20099;-69
2021/09/16 05:19:49;;;;;;;20.42;17.30;;;;;;;17.43;80.27;98804.97;2624132;54;20031;-69
2021/09/16 05:22:19;;;;;;;19.83;17.13;;;;;;;17.45;79.78;98810.88;2623746;39;20462;-69
2021/09/16 05:24:51;;;;;;;20.42;16.42;;;;;;;17.49;79.59;98820.03;2623463;54;20058;-69
2021/09/16 05:27:21;;;;;;;18.63;16.33;;;;;;;17.44;80.21;98822.63;2619866;54;20085;-68
2021/09/16 05:29:51;;;;;;;18.88;16.55;;;;;;;17.44;80.17;98821.81;2619242;54;20043;-68
2021/09/16 05:32:21;;;;;;;21.50;17.65;;;;;;;17.41;80.15;98823.09;2622733;47;20034;-69
2021/09/16 05:34:50;;;;;;;23.17;19.15;;;;;;;17.42;80.19;98819.34;2623282;54;20030;-69
2021/09/16 05:37:20;;;;;;;17.65;15.10;;;;;;;17.27;79.63;98833.22;2622945;54;20027;-69
2021/09/16 05:39:52;;;;;;;17.38;15.55;;;;;;;17.27;79.61;98827.88;2621750;47;20042;-68
2021/09/16 05:42:22;;;;;;;28.88;20.83;;;;;;;17.29;79.52;98825.78;2622749;39;20405;-69
2021/09/16 05:44:51;;;;;;;19.70;16.05;;;;;;;17.32;79.16;98829.84;2622748;54;20125;-68
2021/09/16 05:47:21;;;;;;;19.52;16.67;;;;;;;17.34;79.05;98830.41;2622612;54;20034;-68
2021/09/16 05:49:51;;;;;;;18.10;14.40;;;;;;;17.21;78.37;98828.81;2622561;54;20023;-68
2021/09/16 05:52:20;;;;;;;16.85;14.02;;;;;;;17.15;78.83;98832.44;2622068;54;20018;-68
2021/09/16 05:54:52;;;;;;;22.20;16.90;;;;;;;17.24;79.02;98836.38;2620935;54;20045;-68
2021/09/16 05:57:22;;;;;;;18.25;14.15;;;;;;;17.23;78.11;98837.41;2622460;54;20038;-68
2021/09/16 05:59:52;;;;;;;16.63;13.38;;;;;;;17.24;77.82;98840.91;2621654;47;20042;-68
2021/09/16 06:02:21;;;;;;;14.95;13.45;;;;;;;17.24;77.88;98849.72;2621472;47;20038;-68
2021/09/16 06:04:51;;;;;;;15.98;14.25;;;;;;;17.28;77.53;98856.22;2621955;54;20033;-68
2021/09/16 06:07:21;;;;;;;17.25;15.45;;;;;;;17.32;77.22;98851.22;2621621;54;20038;-68
2021/09/16 06:09:53;;;;;;;18.60;13.95;;;;;;;17.33;77.22;98848.31;2621763;47;20033;-68
2021/09/16 06:12:26;;;;;;;21.88;13.27;;;;;;;17.36;76.58;98846.22;2621005;54;20034;-68
2021/09/16 06:14:56;;;;;;;18.38;13.35;;;;;;;17.31;76.74;98853.09;2619592;54;20031;-69
2021/09/16 06:17:25;;;;;;;16.77;13.45;;;;;;;17.36;76.70;98862.25;2620190;54;20030;-68
2021/09/16 06:19:55;;;;;;;22.77;14.25;;;;;;;17.43;76.63;98861.09;2619924;54;20031;-69
2021/09/16 06:22:25;;;;;;;17.30;13.80;;;;;;;17.50;76.79;98856.41;2618954;54;20042;-69
2021/09/16 06:24:57;;;;;;;19.58;15.60;;;;;;;17.51;76.75;98854.53;2618665;54;20037;-68
2021/09/16 06:27:26;;;;;;;18.30;14.65;;;;;;;17.51;76.62;98858.03;2619144;54;20077;-69
2021/09/16 06:29:56;;;;;;;19.15;15.20;;;;;;;17.51;77.22;98862.56;2622411;54;20038;-69
2021/09/16 06:32:26;;;;;;;19.17;15.43;;;;;;;17.47;77.34;98862.25;2622952;54;20030;-69
2021/09/16 06:34:55;;;;;;;19.55;15.23;;;;;;;17.47;77.35;98867.59;2623333;54;20070;-69
2021/09/16 06:37:25;;;;;;;20.38;15.05;;;;;;;17.54;77.51;98862.09;2623644;54;20038;-69
2021/09/16 06:39:57;;;;;;;24.42;20.08;;;;;;;17.57;77.51;98875.00;2623297;54;20034;-70
2021/09/16 06:42:27;;;;;;;25.67;19.60;;;;;;;17.65;76.93;98868.47;2623059;54;20038;-69
2021/09/16 06:44:56;;;;;;;23.77;20.08;;;;;;;17.64;77.33;98872.19;2622615;47;20023;-68
2021/09/16 06:47:26;;;;;;;16.80;14.50;;;;;;;17.66;77.33;98870.09;2623590;54;20042;-68
2021/09/16 06:49:55;;;;;;;19.67;13.88;;;;;;;17.67;77.22;98874.38;2623358;54;20034;-69
2021/09/16 06:52:25;;;;;;;19.80;14.63;;;;;;;17.68;76.93;98868.81;2622692;54;20038;-68
2021/09/16 06:54:58;;;;;;;17.83;13.00;;;;;;;17.66;76.63;98870.09;2622419;54;20030;-70
2021/09/16 06:57:28;;;;;;;18.80;13.97;;;;;;;17.66;76.68;98883.44;2622041;39;20466;-70
2021/09/16 06:59:58;;;;;;;16.52;12.88;;;;;;;17.63;76.75;98884.72;2621049;54;20074;-70
2021/09/16 07:02:27;;;;;;;15.45;13.60;;;;;;;17.66;77.27;98888.78;2621200;39;20411;-70
2021/09/16 07:04:57;;;;;;;16.77;13.57;;;;;;;17.70;76.50;98889.94;2622635;54;20031;-70
2021/09/16 07:07:36;;;;;;;17.45;13.73;;;;;;;17.64;76.67;98891.72;2621972;54;20037;-71
2021/09/16 07:10:11;;;;;;;26.33;23.15;;;;;;;17.66;77.21;98899.47;2622076;54;20126;-69
2021/09/16 07:12:40;;;;;;;;;;;;;;;17.71;77.10;98896.91;2621826;47;20031;-70
2021/09/16 07:15:11;;;;;;;17.90;14.15;;;;;;;17.75;77.50;98898.91;2622654;54;19973;-69
2021/09/16 07:17:41;;;;;;;17.63;13.82;;;;;;;17.72;76.65;98899.38;2622638;39;20413;-69
2021/09/16 07:20:11;;;;;;;16.10;13.10;;;;;;;17.67;77.15;98904.59;2622553;54;20039;-69
2021/09/16 07:22:41;;;;;;;14.70;12.55;;;;;;;17.63;76.99;98908.78;2622315;54;20557;-69
2021/09/16 07:25:14;;;;;;;18.42;14.50;;;;;;;17.65;76.89;98908.56;2622144;51;20042;-69
2021/09/16 07:27:43;;;;;;;19.83;14.52;;;;;;;17.62;76.53;98907.16;2622180;54;20041;-69
2021/09/16 07:30:14;;;;;;;16.02;13.77;;;;;;;17.60;76.27;98911.94;2622304;54;20030;-68
2021/09/16 07:32:44;;;;;;;17.58;14.32;;;;;;;17.49;75.01;98910.09;2622870;54;20065;-69
2021/09/16 07:35:14;;;;;;;18.73;12.15;;;;;;;17.22;75.00;98917.78;2622302;54;20089;-68
2021/09/16 07:37:43;;;;;;;18.00;12.40;;;;;;;17.17;75.75;98913.13;2622769;54;20030;-69
2021/09/16 07:40:16;;;;;;;15.85;13.85;;;;;;;17.21;76.64;98919.63;2622824;47;20069;-69
2021/09/16 07:42:46;;;;;;;17.88;14.18;;;;;;;17.24;76.89;98921.84;2622337;54;20030;-68
2021/09/16 07:45:16;;;;;;;20.73;14.93;;;;;;;17.24;77.42;98929.88;2623435;54;20030;-68
2021/09/16 07:47:45;;;;;;;19.40;13.90;;;;;;;17.19;76.63;98934.28;2623295;54;20030;-68
2021/09/16 07:50:15;;;;;;;14.13;12.32;;;;;;;17.17;77.13;98937.16;2623103;54;20038;-68
2021/09/16 07:52:44;;;;;;;13.82;10.60;;;;;;;17.11;76.37;98946.13;2623497;54;20026;-68
2021/09/16 07:55:17;;;;;;;12.85;10.98;;;;;;;17.00;74.41;98946.91;2623479;54;20037;-69
2021/09/16 07:57:46;;;;;;;13.23;10.50;;;;;;;16.80;74.79;98950.72;2623112;54;20037;-69
2021/09/16 08:00:17;;;;;;;15.18;11.43;;;;;;;16.81;75.14;98947.00;2622211;54;20030;-69
2021/09/16 08:02:47;;;;;;;12.65;10.52;;;;;;;16.76;74.72;98946.06;2622135;54;20033;-69
2021/09/16 08:05:19;;;;;;;12.57;11.27;;;;;;;16.64;75.25;98951.34;2623416;39;20533;-69
2021/09/16 08:07:49;;;;;;;18.27;13.73;;;;;;;16.55;75.38;98960.72;2622204;54;20037;-69
2021/09/16 08:10:22;;;;;;;16.40;11.90;;;;;;;16.67;75.11;98961.56;2622256;54;20026;-69
2021/09/16 08:12:53;;;;;;;15.52;13.15;;;;;;;16.78;75.33;98965.34;2621427;54;20031;-68
2021/09/16 08:15:22;;;;;;;12.35;10.52;;;;;;;16.85;74.94;98974.06;2621379;47;20026;-68
2021/09/16 08:17:52;;;;;;;12.70;10.90;;;;;;;16.91;74.80;98969.66;2622002;39;20481;-70
2021/09/16 08:20:22;;;;;;;14.70;11.77;;;;;;;17.05;74.61;98977.22;2622017;54;20038;-69
2021/09/16 08:22:52;;;;;;;13.82;10.43;;;;;;;17.09;74.18;98973.06;2622054;54;20050;-69
2021/09/16 08:25:24;;;;;;;12.85;10.05;;;;;;;17.03;74.10;98971.31;2622806;54;20069;-69
2021/09/16 08:27:54;;;;;;;13.38;10.48;;;;;;;17.16;74.58;98980.97;2621830;54;20073;-69
2021/09/16 08:30:23;;;;;;;11.50;10.30;;;;;;;17.33;73.79;98986.44;2622403;54;20040;-69
2021/09/16 08:32:53;;;;;;;10.93;9.57;;;;;;;17.46;73.09;98982.72;2621306;54;20026;-69
2021/09/16 08:35:24;;;;;;;10.73;9.50;;;;;;;17.48;71.87;98978.78;2622757;54;20033;-69
2021/09/16 08:37:53;;;;;;;11.23;9.90;;;;;;;17.54;71.74;98983.16;2622866;54;20034;-68
2021/09/16 08:40:26;;;;;;;13.65;11.30;;;;;;;17.74;71.71;98985.50;2623219;54;20622;-69
2021/09/16 08:42:55;;;;;;;13.10;9.18;;;;;;;17.91;71.76;98988.28;2622579;54;20040;-68
2021/09/16 08:45:25;;;;;;;11.38;10.27;;;;;;;18.09;71.34;98986.50;2622392;54;20045;-68
2021/09/16 08:47:56;;;;;;;13.00;11.60;;;;;;;18.23;70.97;98979.81;2618235;47;20034;-69
2021/09/16 08:50:28;;;;;;;12.32;10.60;;;;;;;18.24;71.28;98984.13;2619491;54;20568;-68
2021/09/16 08:52:59;;;;;;;12.65;11.35;;;;;;;18.28;70.44;98982.59;2622072;54;20122;-68
2021/09/16 08:55:31;;;;;;;13.35;11.77;;;;;;;18.26;70.61;98985.53;2622941;47;20030;-68
2021/09/16 08:58:03;;;;;;;12.07;10.77;;;;;;;18.31;71.21;98984.81;2623620;54;20034;-68
2021/09/16 09:00:34;;;;;;;12.57;10.98;;;;;;;18.55;70.98;98980.16;2623828;54;20026;-68
2021/09/16 09:03:04;;;;;;;12.85;9.93;;;;;;;18.55;69.80;98978.31;2623210;54;20027;-68
2021/09/16 09:05:34;;;;;;;11.65;9.77;;;;;;;18.40;70.12;98982.56;2623249;54;20073;-68
2021/09/16 09:08:05;;;;;;;12.40;9.73;;;;;;;18.46;70.08;98979.75;2623165;54;20070;-68
2021/09/16 09:10:43;;;;;;;12.73;8.45;;;;;;;18.47;68.66;98975.19;2624812;39;20446;-68
2021/09/16 09:13:15;;;;;;;9.50;8.05;;;;;;;18.36;68.33;98987.56;2623342;39;20434;-69
2021/09/16 09:15:47;;;;;;;15.05;8.50;;;;;;;18.59;68.63;98984.00;2622776;54;20029;-68
2021/09/16 09:18:18;;;;;;;8.82;7.25;;;;;;;18.71;69.14;98978.63;2622539;54;20026;-70
2021/09/16 09:21:01;;;;;;;8.85;7.70;;;;;;;18.76;68.33;98984.84;2622095;39;20399;-69
2021/09/16 09:23:33;;;;;;;9.80;7.40;;;;;;;18.91;68.11;98988.88;2621556;54;20030;-70
2021/09/16 09:26:24;;;;;;;8.63;7.70;;;;;;;18.94;67.35;98991.03;2621835;54;20029;-70
2021/09/16 09:28:56;;;;;;;7.35;6.63;;;;;;;18.74;66.24;98992.34;2622094;54;20038;-70
2021/09/16 09:31:27;;;;;;;8.70;6.88;;;;;;;18.71;65.99;98987.44;2622377;54;20053;-70
2021/09/16 09:33:57;;;;;;;9.15;6.35;;;;;;;18.62;66.01;98993.41;2621826;54;20098;-70
2021/09/16 09:36:26;;;;;;;9.00;6.13;;;;;;;18.65;65.88;98991.03;2621135;39;20418;-71
2021/09/16 09:39:01;;;;;;;8.52;6.47;;;;;;;18.71;66.19;98982.09;2620733;39;20481;-69
2021/09/16 09:41:35;;;;;;;7.53;6.65;;;;;;;18.88;65.88;98984.78;2621484;54;20061;-69
2021/09/16 09:44:09;;;;;;;8.00;6.32;;;;;;;19.07;65.80;98985.38;2619527;54;20034;-70
2021/09/16 09:46:44;;;;;;;6.20;5.60;;;;;;;19.30;65.07;98985.19;2620245;54;20039;-70
2021/09/16 09:49:15;;;;;;;8.43;6.13;;;;;;;19.10;64.38;98986.75;2620978;54;20038;-68
2021/09/16 09:51:48;;;;;;;6.35;5.47;;;;;;;19.14;65.04;98987.88;2621504;39;20442;-67
2021/09/16 09:54:27;;;;;;;8.37;6.00;;;;;;;19.14;64.21;98991.38;2620645;54;20514;-70
2021/09/16 09:57:14;;;;;;;6.40;5.80;;;;;;;19.03;63.53;98985.06;2620803;47;20053;-69
2021/09/16 10:00:00;;;;;;;5.45;4.95;;;;;;;19.11;62.93;98988.41;2620847;54;20043;-70
2021/09/16 10:02:49;;;;;;;6.97;4.97;;;;;;;19.08;63.63;98988.88;2620327;54;20026;-70
2021/09/16 10:05:25;;;;;;;6.43;4.50;;;;;;;18.99;63.65;99005.34;2620909;54;20034;-71
2021/09/16 10:07:55;;;;;;;5.20;4.40;;;;;;;18.94;62.64;99004.44;2620901;54;20049;-70
2021/09/16 10:10:26;;;;;;;6.93;3.88;;;;;;;18.99;62.71;99002.69;2621593;54;20022;-70
2021/09/16 10:12:58;;;;;;;6.07;4.20;;;;;;;19.14;62.61;98993.25;2619999;54;20633;-70
2021/09/16 10:15:28;;;;;;;5.70;4.05;;;;;;;19.34;62.25;98995.44;2620538;47;20037;-70
2021/09/16 10:17:57;;;;;;;5.07;4.00;;;;;;;19.52;61.23;98997.88;2621098;54;20038;-70
2021/09/16 10:20:30;;;;;;;4.60;3.90;;;;;;;19.54;60.79;99003.78;2620795;54;20018;-69
2021/09/16 10:23:06;;;;;;;4.22;3.47;;;;;;;19.55;59.76;98992.00;2620296;54;20027;-69
2021/09/16 10:25:36;;;;;;;6.22;3.17;;;;;;;19.45;58.97;98997.22;2621124;54;20034;-69
2021/09/16 10:28:10;;;;;;;5.65;3.22;;;;;;;19.47;59.19;98993.25;2620799;54;20580;-68
2021/09/16 10:30:42;;;;;;;3.80;3.33;;;;;;;19.55;59.15;98997.34;2620565;54;20033;-68
2021/09/16 10:33:30;;;;;;;5.68;3.00;;;;;;;19.64;58.13;98995.94;2619901;54;20042;-69
2021/09/16 10:36:10;;;;;;;3.78;3.17;;;;;;;19.76;58.33;98993.16;2620982;54;20530;-69
2021/09/16 10:38:41;;;;;;;5.93;3.33;;;;;;;19.94;58.53;98995.53;2621007;47;20035;-69
2021/09/16 10:41:19;;;;;;;3.00;2.72;;;;;;;20.04;57.60;98989.47;2621523;54;20045;-69
2021/09/16 10:44:14;;;;;;;5.20;3.00;;;;;;;19.88;57.27;98988.47;2619866;51;20038;-69
2021/09/16 10:46:46;;;;;;;3.33;3.03;;;;;;;19.89;57.74;98987.41;2621345;54;20074;-69
2021/09/16 10:49:31;;;;;;;4.50;3.08;;;;;;;19.87;56.82;98994.88;2620974;54;20034;-69
2021/09/16 10:52:03;;;;;;;3.38;3.08;;;;;;;19.95;57.18;98986.41;2621212;54;20034;-69
2021/09/16 10:54:40;;;;;;;6.75;5.88;;;;;;;20.05;57.01;98988.44;2621439;54;20065;-69
2021/09/16 10:57:12;;;;;;;4.13;3.72;;;;;;;20.12;56.37;98978.28;2622766;39;20452;-68
2021/09/16 11:00:22;;;;;;;4.15;3.28;;;;;;;20.21;56.70;98981.38;2620638;54;20566;-68
2021/09/16 11:03:17;;;;;;;4.95;2.55;;;;;;;20.33;56.29;98974.00;2620554;39;20457;-69
2021/09/16 11:05:53;;;;;;;2.80;2.15;;;;;;;20.21;55.19;98976.00;2620103;54;20023;-68
2021/09/16 11:08:25;;;;;;;3.03;2.53;;;;;;;20.18;55.98;98979.19;2620101;54;20042;-68
2021/09/16 11:10:59;;;;;;;2.78;2.58;;;;;;;20.28;54.99;98985.47;2621294;39;20481;-69
2021/09/16 11:13:39;;;;;;;2.95;1.98;;;;;;;20.33;54.62;98979.38;2620424;54;20034;-69
2021/09/16 11:16:10;;;;;;;3.08;2.50;;;;;;;20.26;54.74;98976.84;2621152;54;20018;-68
2021/09/16 11:18:48;;;;;;;2.78;1.85;;;;;;;20.31;53.95;98984.16;2620967;54;20034;-68
2021/09/16 11:21:20;;;;;;;2.60;1.80;;;;;;;20.37;52.88;98972.44;2620911;54;20026;-68
2021/09/16 11:23:52;;;;;;;2.95;2.20;;;;;;;20.38;53.69;98974.03;2620436;54;20591;-68
2021/09/16 11:26:27;;;;;;;3.38;2.22;;;;;;;20.63;52.39;98975.41;2620555;54;20030;-67
2021/09/16 11:29:06;;;;;;;2.53;2.15;;;;;;;20.60;52.17;98968.66;2619604;31;20502;-65
2021/09/16 11:31:35;;;;;;;3.22;2.00;;;;;;;20.68;53.39;98967.38;2618457;54;20556;-65
2021/09/16 11:34:17;;;;;;;2.42;2.03;;;;;;;20.76;52.44;98970.41;2618581;54;20026;-64
2021/09/16 17:31:10;;;;;;;4.43;2.72;;;;;;;18.84;56.74;98938.13;2618799;47;20039;-69
2021/09/16 17:33:40;;;;;;;3.30;2.93;;;;;;;18.77;56.78;98945.50;2620112;54;20550;-69
2021/09/16 17:36:09;;;;;;;4.18;2.72;;;;;;;18.75;56.88;98955.66;2620623;54;20323;-69